createdAt,value
2022-10-14T05:00:57.783Z,100384.89
2022-10-14T05:03:34.361Z,100380.98
2022-10-14T05:06:03.319Z,100377.77
2022-10-14T05:08:32.075Z,100379.85
2022-10-14T05:11:05.146Z,100376.55
2022-10-14T05:13:39.297Z,100377.40
2022-10-14T05:16:10.008Z,100378.23
2022-10-14T05:18:39.894Z,100379.30
2022-10-14T05:21:12.356Z,100376.29
2022-10-14T05:24:02.026Z,100376.84
2022-10-14T05:26:33.043Z,100377.92
2022-10-14T05:29:04.037Z,100379.05
2022-10-14T05:31:32.780Z,100382.96
2022-10-14T05:34:12.101Z,100376.70
2022-10-14T05:36:41.174Z,100377.41
2022-10-14T05:39:09.476Z,100374.40
2022-10-14T05:41:39.221Z,100375.38
2022-10-14T05:44:08.570Z,100376.36
2022-10-14T05:46:36.554Z,100375.72
2022-10-14T05:49:07.428Z,100382.27
2022-10-14T05:51:37.742Z,100378.76
2022-10-14T05:54:13.862Z,100377.60
2022-10-14T05:56:44.405Z,100382.80
2022-10-14T05:59:13.546Z,100382.84
2022-10-14T06:01:44.412Z,100388.59
2022-10-14T06:04:20.327Z,100385.91
2022-10-14T06:06:49.271Z,100386.58
2022-10-14T06:09:18.265Z,100390.28
2022-10-14T06:11:46.975Z,100392.05
2022-10-14T06:14:17.251Z,100386.61
2022-10-14T06:16:50.337Z,100386.86
2022-10-14T06:19:19.386Z,100385.81
2022-10-14T06:21:47.630Z,100385.21
2022-10-14T06:24:16.507Z,100383.48
2022-10-14T06:26:48.989Z,100384.16
2022-10-14T06:29:18.481Z,100382.59
2022-10-14T06:31:46.958Z,100383.96
2022-10-14T06:34:19.158Z,100381.55
2022-10-14T06:36:48.361Z,100383.17
2022-10-14T06:39:17.250Z,100388.15
2022-10-14T06:41:45.925Z,100385.04
2022-10-14T06:44:21.576Z,100381.39
2022-10-14T06:46:50.720Z,100383.28
2022-10-14T06:49:19.414Z,100386.02
2022-10-14T06:51:48.013Z,100390.39
2022-10-14T06:54:17.267Z,100401.08
2022-10-14T06:56:45.789Z,100404.02
2022-10-14T06:59:14.427Z,100404.78
2022-10-14T07:01:43.429Z,100407.60
2022-10-14T07:04:12.430Z,100406.76
2022-10-14T07:06:41.262Z,100408.10
2022-10-14T07:09:10.126Z,100412.98
2022-10-14T07:11:38.628Z,100404.10
2022-10-14T07:14:07.311Z,100402.75
2022-10-14T07:16:36.322Z,100404.52
2022-10-14T07:19:05.183Z,100396.13
2022-10-14T07:21:34.186Z,100400.15
2022-10-14T07:24:02.961Z,100400.63
2022-10-14T07:26:33.246Z,100402.55
2022-10-14T07:29:02.128Z,100392.81
2022-10-14T07:31:31.105Z,100391.85
2022-10-14T07:34:04.087Z,100395.92
2022-10-14T07:36:32.944Z,100384.08
2022-10-14T07:39:01.889Z,100391.71
2022-10-14T07:41:30.573Z,100388.58
2022-10-14T07:44:03.613Z,100382.63
2022-10-14T07:46:33.868Z,100381.46
2022-10-14T07:49:06.782Z,100381.14
2022-10-14T07:51:35.847Z,100384.23
2022-10-14T07:54:10.034Z,100382.59
2022-10-14T07:56:39.305Z,100379.88
2022-10-14T07:59:10.898Z,100382.95
2022-10-14T08:01:39.308Z,100378.98
2022-10-14T08:04:07.477Z,100380.63
2022-10-14T08:06:35.789Z,100379.98
2022-10-14T08:09:05.357Z,100380.58
2022-10-14T08:11:34.170Z,100377.74
2022-10-14T08:14:03.143Z,100377.46
2022-10-14T08:16:33.105Z,100379.90
2022-10-14T08:19:06.085Z,100375.60
2022-10-14T08:21:35.825Z,100381.05
2022-10-14T08:24:04.692Z,100377.17
2022-10-14T08:26:38.085Z,100377.77
2022-10-14T08:29:07.911Z,100380.63
2022-10-14T08:31:36.359Z,100382.91
2022-10-14T08:34:04.816Z,100379.41
2022-10-14T08:36:33.111Z,100372.83
2022-10-14T08:39:02.107Z,100375.28
2022-10-14T08:41:45.582Z,100374.78
2022-10-14T08:44:18.421Z,100371.91
2022-10-14T08:46:52.193Z,100371.42
2022-10-14T08:49:24.157Z,100368.77
2022-10-14T08:51:56.360Z,100366.18
2022-10-14T08:54:41.797Z,100373.00
2022-10-14T08:57:20.073Z,100373.77
2022-10-14T08:59:49.113Z,100373.06
2022-10-14T09:02:24.165Z,100376.39
2022-10-14T09:04:52.938Z,100372.36
2022-10-14T09:07:22.151Z,100375.45
2022-10-14T09:09:54.006Z,100375.50
2022-10-14T09:12:26.290Z,100370.45
2022-10-14T09:15:10.212Z,100365.98
2022-10-14T09:17:46.031Z,100367.39
2022-10-14T09:20:22.942Z,100369.71
2022-10-14T09:23:06.724Z,100368.11
2022-10-14T09:25:35.894Z,100368.04
2022-10-14T09:28:04.799Z,100367.20
2022-10-14T09:30:36.681Z,100366.33
2022-10-14T09:33:06.029Z,100365.71
2022-10-14T09:35:39.228Z,100362.15
2022-10-14T09:38:08.318Z,100362.41
2022-10-14T09:40:40.111Z,100358.75
2022-10-14T09:43:08.319Z,100355.95
2022-10-14T09:45:55.809Z,100353.20
2022-10-14T09:48:43.307Z,100355.83
2022-10-14T09:51:21.007Z,100355.47
2022-10-14T09:53:59.907Z,100347.27
2022-10-14T09:56:41.794Z,100343.91
2022-10-14T09:59:23.367Z,100343.11
2022-10-14T10:02:06.250Z,100339.78
2022-10-14T10:04:37.421Z,100339.27
2022-10-14T10:07:07.946Z,100340.95
2022-10-14T10:09:36.768Z,100335.50
2022-10-14T10:12:48.113Z,100333.89
2022-10-14T10:15:22.035Z,100332.91
2022-10-14T10:17:51.651Z,100330.59
2022-10-14T10:20:36.202Z,100332.42
2022-10-14T10:23:37.682Z,100331.89
2022-10-14T10:26:16.355Z,100333.84
2022-10-14T10:28:46.737Z,100333.91
2022-10-14T10:31:35.688Z,100332.52
2022-10-14T10:34:04.578Z,100336.35
2022-10-14T10:36:38.282Z,100333.97
2022-10-14T10:39:15.936Z,100329.13
2022-10-14T10:42:01.294Z,100331.77
2022-10-14T10:44:30.025Z,100329.64
2022-10-14T10:47:13.510Z,100332.98
2022-10-14T10:50:00.817Z,100332.55
2022-10-14T10:52:38.220Z,100332.82
2022-10-14T10:55:12.858Z,100330.62
2022-10-14T10:57:47.860Z,100330.58
2022-10-14T11:00:21.828Z,100325.27
2022-10-14T11:02:55.703Z,100324.09
2022-10-14T11:05:38.540Z,100317.59
2022-10-14T11:08:46.022Z,100315.91
2022-10-14T11:12:06.906Z,100314.73
2022-10-14T11:14:39.021Z,100315.65
2022-10-14T11:17:14.966Z,100312.06
2022-10-14T11:19:47.102Z,100309.81
2022-10-14T11:22:29.740Z,100304.45
2022-10-14T11:25:04.339Z,100304.03
2022-10-14T11:27:46.441Z,100301.52
2022-10-14T11:30:15.843Z,100298.23
2022-10-14T11:32:57.643Z,100290.15
2022-10-14T11:35:29.085Z,100294.86
2022-10-14T11:38:04.317Z,100288.83
2022-10-14T11:40:41.992Z,100284.52
2022-10-14T11:43:10.378Z,100284.53
2022-10-14T11:45:39.598Z,100285.85
2022-10-14T11:48:11.169Z,100286.04
2022-10-14T11:50:42.293Z,100287.40
2022-10-14T11:53:13.495Z,100286.77
2022-10-14T11:55:44.526Z,100282.47
2022-10-14T11:58:15.972Z,100282.48
2022-10-14T12:00:46.732Z,100284.45
2022-10-14T12:03:32.471Z,100280.59
2022-10-14T12:06:04.681Z,100278.41
2022-10-14T12:08:46.296Z,100275.73
2022-10-14T12:11:18.813Z,100277.02
2022-10-14T12:13:55.070Z,100274.97
2022-10-14T12:16:24.524Z,100271.59
2022-10-14T12:18:57.434Z,100268.79
2022-10-14T12:21:36.627Z,100268.61
2022-10-14T12:24:07.514Z,100266.05
2022-10-14T12:26:48.587Z,100263.20
2022-10-14T12:29:20.850Z,100259.69
2022-10-14T12:31:51.657Z,100257.92
2022-10-14T12:34:29.005Z,100254.05
2022-10-14T12:36:57.815Z,100250.54
2022-10-14T12:39:31.705Z,100248.70
2022-10-14T12:42:15.440Z,100249.88
2022-10-14T12:44:50.254Z,100248.33
2022-10-14T12:47:19.738Z,100246.61
2022-10-14T12:49:50.813Z,100244.45
2022-10-14T12:52:22.855Z,100243.45
2022-10-14T12:54:54.734Z,100242.58
2022-10-14T12:57:31.693Z,100238.60
2022-10-14T13:00:02.830Z,100237.98
2022-10-14T13:02:36.641Z,100235.52
2022-10-14T13:05:09.895Z,100237.94
2022-10-14T13:07:41.093Z,100228.86
2022-10-14T13:10:32.044Z,100228.06
2022-10-14T13:13:01.161Z,100228.05
2022-10-14T13:15:34.991Z,100226.08
2022-10-14T13:18:22.787Z,100225.85
2022-10-14T13:20:52.579Z,100229.24
2022-10-14T13:23:40.935Z,100226.11
2022-10-14T13:26:12.582Z,100228.05
2022-10-14T13:28:53.823Z,100228.68
2022-10-14T13:31:27.527Z,100231.79
2022-10-14T13:34:12.245Z,100231.16
2022-10-14T13:36:54.201Z,100230.98
2022-10-14T13:39:23.245Z,100233.70
2022-10-14T13:41:52.908Z,100230.96
2022-10-14T13:44:22.302Z,100230.20
2022-10-14T13:46:51.350Z,100228.02
2022-10-14T13:49:28.309Z,100229.20
2022-10-14T13:51:56.931Z,100225.60
2022-10-14T13:54:26.126Z,100226.60
2022-10-14T14:02:42.997Z,100231.65
2022-10-14T14:05:16.594Z,100229.16
2022-10-14T14:10:39.098Z,100230.41
2022-10-14T14:13:13.049Z,100227.80
2022-10-14T14:15:42.939Z,100233.19
2022-10-14T14:18:33.886Z,100228.27
2022-10-14T14:21:13.324Z,100234.13
2022-10-14T14:23:59.013Z,100233.45
2022-10-14T14:26:34.994Z,100230.58
2022-10-14T14:29:07.869Z,100231.48
2022-10-14T14:32:05.084Z,100233.95
2022-10-14T14:34:28.739Z,100233.67
2022-10-14T14:37:10.980Z,100233.52
2022-10-14T14:40:01.289Z,100234.62
2022-10-14T14:42:32.826Z,100235.71
2022-10-14T14:45:07.485Z,100231.78
2022-10-14T14:47:36.309Z,100230.65
2022-10-14T14:50:29.031Z,100231.66
2022-10-14T14:55:37.758Z,100230.77
2022-10-14T14:58:14.871Z,100230.00
2022-10-14T15:00:45.772Z,100230.35
2022-10-14T15:03:14.377Z,100229.80
2022-10-14T15:05:49.129Z,100228.07
2022-10-14T15:08:25.614Z,100226.64
2022-10-14T15:10:57.520Z,100225.73
2022-10-14T15:13:46.660Z,100225.39
2022-10-14T15:16:32.562Z,100221.40
2022-10-14T15:19:14.532Z,100216.54
2022-10-14T15:21:47.971Z,100217.11
2022-10-14T15:24:18.838Z,100215.95
2022-10-14T15:26:47.880Z,100215.27
2022-10-14T15:32:08.001Z,100214.29
2022-10-14T15:34:38.538Z,100216.11
2022-10-14T15:37:07.354Z,100215.13
2022-10-14T15:39:36.192Z,100217.46
2022-10-14T15:42:10.015Z,100218.71
2022-10-14T15:44:40.893Z,100214.28
2022-10-14T15:47:22.291Z,100216.83
2022-10-14T15:49:54.031Z,100217.09
2022-10-14T15:52:26.138Z,100213.73
2022-10-14T15:54:57.922Z,100212.30
2022-10-14T15:57:27.087Z,100211.70
2022-10-14T15:59:55.458Z,100214.34
2022-10-14T16:02:31.343Z,100209.35
2022-10-14T16:07:48.717Z,100213.73
2022-10-14T16:10:19.373Z,100212.98
2022-10-14T16:12:48.283Z,100215.36
2022-10-14T16:15:35.127Z,100216.55
2022-10-14T16:18:03.413Z,100216.55
2022-10-14T16:20:31.990Z,100217.44
2022-10-14T16:23:01.685Z,100216.59
2022-10-14T16:25:33.188Z,100217.77
2022-10-14T16:28:05.279Z,100215.67
2022-10-14T16:30:37.489Z,100215.91
2022-10-14T16:33:06.571Z,100216.97
2022-10-14T16:35:34.752Z,100215.95
2022-10-14T16:38:03.476Z,100219.24
2022-10-14T16:40:36.580Z,100218.88
2022-10-14T16:43:07.775Z,100218.88
2022-10-14T16:45:37.233Z,100219.23
2022-10-14T16:48:06.355Z,100220.68
2022-10-14T16:50:35.360Z,100215.73
2022-10-14T16:53:22.639Z,100214.80
2022-10-14T16:55:52.059Z,100210.46
2022-10-14T16:58:20.518Z,100204.77
2022-10-14T17:00:49.451Z,100204.67
2022-10-14T17:03:18.652Z,100203.70
2022-10-14T17:05:48.286Z,100203.85
2022-10-14T17:08:19.045Z,100207.67
2022-10-14T17:10:49.383Z,100203.48
2022-10-14T17:13:18.646Z,100202.41
2022-10-14T17:15:48.082Z,100201.83
2022-10-14T17:18:18.012Z,100199.63
2022-10-14T17:20:46.347Z,100204.44
2022-10-14T17:23:14.568Z,100205.96
2022-10-14T17:25:47.525Z,100210.55
2022-10-14T17:28:16.232Z,100209.83
2022-10-14T17:30:44.585Z,100215.88
2022-10-14T17:33:13.644Z,100214.91
2022-10-14T17:35:42.530Z,100216.94
2022-10-14T17:38:11.011Z,100218.14
2022-10-14T17:40:39.654Z,100214.55
2022-10-14T17:43:08.725Z,100216.05
2022-10-14T17:45:38.886Z,100215.41
2022-10-14T17:48:07.826Z,100217.20
2022-10-14T17:50:36.529Z,100218.95
2022-10-14T17:53:04.778Z,100217.60
2022-10-14T17:55:35.145Z,100219.30
2022-10-14T17:58:03.965Z,100214.64
2022-10-14T18:00:32.138Z,100211.23
2022-10-14T18:03:00.714Z,100208.45
2022-10-14T18:05:30.743Z,100211.35
2022-10-14T18:07:59.305Z,100206.12
2022-10-14T18:10:27.984Z,100206.99
2022-10-14T18:12:58.250Z,100201.85
2022-10-14T18:15:27.743Z,100197.61
2022-10-14T18:17:59.757Z,100198.92
2022-10-14T18:20:28.170Z,100197.39
2022-10-14T18:22:56.631Z,100197.97
2022-10-14T18:25:25.600Z,100196.20
2022-10-14T18:27:54.275Z,100193.28
2022-10-14T18:30:22.483Z,100192.28
2022-10-14T18:32:54.556Z,100192.12
2022-10-14T18:35:22.836Z,100191.77
2022-10-14T18:37:51.595Z,100187.70
2022-10-14T18:40:22.146Z,100189.71
2022-10-14T18:42:51.433Z,100188.14
2022-10-14T18:45:19.860Z,100193.08
2022-10-14T18:47:48.897Z,100187.99
2022-10-14T18:50:17.459Z,100193.66
2022-10-14T18:52:46.341Z,100187.69
2022-10-14T18:55:14.992Z,100187.14
2022-10-14T18:57:43.822Z,100190.20
2022-10-14T19:00:14.322Z,100192.43
2022-10-14T19:02:43.312Z,100196.34
2022-10-14T19:05:12.067Z,100194.10
2022-10-14T19:07:41.052Z,100194.36
2022-10-14T19:10:10.122Z,100193.58
2022-10-14T19:12:41.711Z,100189.02
2022-10-14T19:15:11.598Z,100190.51
2022-10-14T19:17:40.451Z,100190.82
2022-10-14T19:20:08.690Z,100190.33
2022-10-14T19:22:41.380Z,100190.25
2022-10-14T19:25:09.705Z,100188.94
2022-10-14T19:27:38.520Z,100190.48
2022-10-14T19:30:07.236Z,100184.79
2022-10-14T19:32:36.560Z,100182.48
2022-10-14T19:35:05.396Z,100184.34
2022-10-14T19:37:33.602Z,100183.66
2022-10-14T19:40:01.792Z,100183.73
2022-10-14T19:42:30.609Z,100180.67
2022-10-14T19:44:59.847Z,100180.78
2022-10-14T19:47:28.577Z,100181.28
2022-10-14T19:49:57.067Z,100180.33
2022-10-14T19:52:26.108Z,100178.29
2022-10-14T19:54:55.096Z,100176.30
2022-10-14T19:57:23.704Z,100171.83
2022-10-14T19:59:52.593Z,100171.28
2022-10-14T20:02:21.383Z,100170.69
2022-10-14T20:04:53.833Z,100166.38
2022-10-14T20:07:22.286Z,100166.08
2022-10-14T20:09:50.888Z,100167.09
2022-10-14T20:12:19.713Z,100165.84
2022-10-14T20:14:50.109Z,100164.57
2022-10-14T20:19:53.177Z,100165.28
2022-10-14T20:22:21.781Z,100163.46
2022-10-14T20:24:50.791Z,100164.84
2022-10-14T20:27:19.409Z,100163.92
2022-10-14T20:29:48.935Z,100160.62
2022-10-14T20:32:18.188Z,100157.92
2022-10-14T20:34:47.987Z,100160.64
2022-10-14T20:37:17.170Z,100156.77
2022-10-14T20:39:46.323Z,100153.83
2022-10-14T20:42:15.130Z,100153.52
2022-10-14T20:44:43.301Z,100150.91
2022-10-14T20:47:12.470Z,100151.78
2022-10-14T20:49:42.845Z,100145.91
2022-10-14T20:52:11.959Z,100145.94
2022-10-14T20:54:43.285Z,100146.19
2022-10-14T20:57:11.893Z,100144.56
2022-10-14T20:59:43.126Z,100141.59
2022-10-14T21:02:19.315Z,100142.88
2022-10-14T21:04:48.466Z,100136.55
2022-10-14T21:07:18.253Z,100130.29
2022-10-14T21:09:48.003Z,100134.10
2022-10-14T21:12:17.088Z,100133.46
2022-10-14T21:14:46.661Z,100132.08
2022-10-14T21:17:15.462Z,100134.54
2022-10-14T21:19:43.924Z,100128.88
2022-10-14T21:22:16.386Z,100126.09
2022-10-14T21:24:44.542Z,100126.42
2022-10-14T21:27:12.786Z,100120.54
2022-10-14T21:29:41.520Z,100119.13
2022-10-14T21:32:09.820Z,100114.41
2022-10-14T21:34:38.326Z,100118.02
2022-10-14T21:37:07.079Z,100122.50
2022-10-14T21:39:36.391Z,100123.77
2022-10-14T21:42:05.443Z,100121.77
2022-10-14T21:44:33.559Z,100120.45
2022-10-14T21:47:02.283Z,100120.33
2022-10-14T21:49:30.330Z,100117.16
2022-10-14T21:51:58.816Z,100119.58
2022-10-14T21:54:27.192Z,100126.08
2022-10-14T21:59:25.554Z,100129.35
2022-10-14T22:01:56.741Z,100128.35
2022-10-14T22:04:27.313Z,100126.84
2022-10-14T22:06:55.695Z,100121.89
2022-10-14T22:09:24.149Z,100119.76
2022-10-14T22:11:54.034Z,100123.16
2022-10-14T22:14:22.258Z,100120.09
2022-10-14T22:16:50.394Z,100121.23
2022-10-14T22:19:18.591Z,100120.91
2022-10-14T22:21:47.909Z,100120.96
2022-10-14T22:24:16.850Z,100115.83
2022-10-14T22:26:45.272Z,100117.15
2022-10-14T22:29:15.325Z,100115.83
2022-10-14T22:31:44.121Z,100110.31
2022-10-14T22:34:13.555Z,100108.13
2022-10-14T22:36:42.424Z,100106.02
2022-10-14T22:39:12.801Z,100107.90
2022-10-14T22:41:41.127Z,100106.63
2022-10-14T22:44:10.578Z,100106.88
2022-10-14T22:46:39.473Z,100110.86
2022-10-14T22:49:07.827Z,100115.38
2022-10-14T22:51:42.937Z,100114.55
2022-10-14T22:54:11.251Z,100115.52
2022-10-14T22:56:41.129Z,100118.89
2022-10-14T22:59:11.380Z,100115.52
2022-10-14T23:01:41.255Z,100114.73
2022-10-14T23:04:11.385Z,100113.11
2022-10-14T23:06:40.292Z,100109.83
2022-10-14T23:09:09.024Z,100103.53
2022-10-14T23:11:37.379Z,100101.48
2022-10-14T23:14:07.136Z,100100.93
2022-10-14T23:16:36.361Z,100098.83
2022-10-14T23:19:04.818Z,100095.77
2022-10-14T23:21:34.489Z,100091.02
2022-10-14T23:24:04.704Z,100088.80
2022-10-14T23:26:34.842Z,100087.16
2022-10-14T23:29:06.504Z,100083.17
2022-10-14T23:31:35.761Z,100081.66
2022-10-14T23:34:05.893Z,100084.64
2022-10-14T23:36:34.211Z,100083.41
2022-10-14T23:39:02.357Z,100083.19
2022-10-14T23:41:30.548Z,100086.63
2022-10-14T23:43:58.632Z,100087.42
2022-10-14T23:46:27.062Z,100089.52
2022-10-14T23:49:06.752Z,100091.02
2022-10-14T23:51:35.958Z,100088.02
2022-10-14T23:54:04.597Z,100083.65
2022-10-14T23:56:32.729Z,100080.44
2022-10-14T23:59:01.399Z,100078.36
